createdAt,value
2019-06-27T00:00:05.821Z,7.47
2019-06-27T00:02:38.518Z,7.30
2019-06-27T00:05:12.580Z,7.03
2019-06-27T00:07:46.036Z,7.33
2019-06-27T00:10:18.741Z,7.03
2019-06-27T00:12:50.932Z,6.83
2019-06-27T00:15:23.377Z,8.50
2019-06-27T00:17:55.614Z,6.77
2019-06-27T00:20:28.089Z,7.17
2019-06-27T00:23:00.929Z,7.17
2019-06-27T00:25:33.433Z,7.17
2019-06-27T00:28:06.033Z,6.63
2019-06-27T00:30:38.657Z,7.47
2019-06-27T00:33:10.803Z,6.80
2019-06-27T00:35:43.158Z,6.67
2019-06-27T00:38:16.033Z,6.67
2019-06-27T00:40:48.748Z,6.50
2019-06-27T00:43:21.156Z,6.37
2019-06-27T00:45:54.420Z,6.20
2019-06-27T00:48:26.847Z,7.30
2019-06-27T00:50:59.193Z,7.00
2019-06-27T00:53:31.823Z,6.50
2019-06-27T00:56:04.570Z,6.10
2019-06-27T00:58:36.981Z,6.97
2019-06-27T01:01:09.499Z,6.70
2019-06-27T01:03:41.880Z,6.47
2019-06-27T01:06:25.846Z,6.80
2019-06-27T01:08:58.847Z,6.90
2019-06-27T01:11:31.424Z,6.27
2019-06-27T01:14:03.779Z,6.00
2019-06-27T01:16:36.486Z,6.00
2019-06-27T01:19:09.102Z,6.00
2019-06-27T01:21:41.516Z,5.83
2019-06-27T01:24:14.008Z,5.60
2019-06-27T01:26:46.337Z,5.87
2019-06-27T01:29:18.600Z,5.80
2019-06-27T01:31:51.013Z,6.07
2019-06-27T01:34:23.434Z,5.53
2019-06-27T01:36:55.654Z,5.93
2019-06-27T01:39:27.929Z,6.03
2019-06-27T01:42:00.281Z,5.67
2019-06-27T01:44:39.485Z,5.50
2019-06-27T01:47:11.853Z,6.07
2019-06-27T01:49:44.218Z,6.00
2019-06-27T01:52:16.668Z,5.47
2019-06-27T01:54:49.089Z,5.90
2019-06-27T01:57:21.963Z,5.77
2019-06-27T01:59:54.465Z,5.97
2019-06-27T02:02:26.982Z,5.97
2019-06-27T02:04:59.497Z,6.17
2019-06-27T02:07:31.896Z,5.97
2019-06-27T02:10:05.758Z,5.67
2019-06-27T02:12:38.420Z,5.77
2019-06-27T02:15:11.677Z,5.90
2019-06-27T02:17:44.068Z,5.93
2019-06-27T02:20:17.335Z,6.13
2019-06-27T02:22:49.728Z,6.10
2019-06-27T02:25:24.297Z,6.33
2019-06-27T02:28:03.928Z,5.70
2019-06-27T02:30:37.774Z,6.03
2019-06-27T02:33:11.346Z,6.10
2019-06-27T02:35:43.801Z,6.03
2019-06-27T02:38:16.102Z,5.83
2019-06-27T02:40:48.774Z,5.80
2019-06-27T02:43:21.293Z,6.37
2019-06-27T02:45:53.686Z,5.77
2019-06-27T02:48:26.264Z,6.40
2019-06-27T02:50:58.711Z,5.83
2019-06-27T02:53:31.118Z,5.97
2019-06-27T02:56:03.361Z,6.47
2019-06-27T02:58:35.993Z,6.00
2019-06-27T03:01:08.291Z,6.03
2019-06-27T03:03:40.869Z,6.37
2019-06-27T03:06:13.168Z,6.53
2019-06-27T03:08:45.449Z,5.80
2019-06-27T03:11:17.698Z,6.00
2019-06-27T03:13:50.076Z,6.10
2019-06-27T03:16:22.621Z,6.67
2019-06-27T03:18:55.230Z,6.43
2019-06-27T03:21:39.782Z,6.40
2019-06-27T03:24:12.620Z,6.33
2019-06-27T03:26:45.011Z,6.37
2019-06-27T03:29:20.386Z,5.70
2019-06-27T03:31:52.603Z,5.50
2019-06-27T03:34:25.316Z,5.80
2019-06-27T03:36:57.594Z,5.57
2019-06-27T03:39:30.194Z,5.23
2019-06-27T03:42:02.763Z,4.90
2019-06-27T03:44:35.154Z,4.63
2019-06-27T03:47:08.582Z,5.13
2019-06-27T03:49:42.105Z,5.30
2019-06-27T03:52:14.474Z,5.07
2019-06-27T03:54:46.856Z,4.87
2019-06-27T03:57:19.383Z,5.20
2019-06-27T03:59:52.428Z,5.10
2019-06-27T04:02:24.702Z,5.40
2019-06-27T04:04:58.647Z,5.13
2019-06-27T04:07:31.250Z,5.10
2019-06-27T04:10:03.728Z,5.13
2019-06-27T04:12:36.393Z,4.60
2019-06-27T04:15:08.917Z,4.63
2019-06-27T04:17:41.316Z,4.10
2019-06-27T04:20:14.742Z,4.20
2019-06-27T04:22:48.074Z,4.33
2019-06-27T04:25:20.548Z,4.07
2019-06-27T04:27:53.238Z,4.47
2019-06-27T04:30:25.997Z,3.70
2019-06-27T04:32:58.341Z,3.80
2019-06-27T04:35:30.788Z,3.97
2019-06-27T04:38:03.328Z,3.50
2019-06-27T04:40:36.112Z,3.13
2019-06-27T04:43:08.849Z,2.87
2019-06-27T04:45:41.424Z,3.30
2019-06-27T04:48:13.651Z,3.17
2019-06-27T04:50:45.907Z,3.13
2019-06-27T04:53:18.284Z,3.30
2019-06-27T04:55:50.648Z,3.07
2019-06-27T04:58:22.986Z,3.40
2019-06-27T05:00:55.533Z,3.10
2019-06-27T05:03:28.038Z,2.90
2019-06-27T05:06:00.637Z,2.93
2019-06-27T05:08:33.057Z,3.20
2019-06-27T05:11:05.742Z,2.80
2019-06-27T05:13:38.356Z,2.67
2019-06-27T05:16:11.051Z,2.70
2019-06-27T05:18:43.192Z,2.60
2019-06-27T05:21:15.607Z,2.40
2019-06-27T05:23:48.840Z,2.83
2019-06-27T05:26:22.123Z,2.60
2019-06-27T05:28:54.434Z,2.50
2019-06-27T05:31:27.997Z,2.40
2019-06-27T05:34:00.542Z,2.40
2019-06-27T05:36:33.094Z,2.50
2019-06-27T05:39:06.163Z,2.60
2019-06-27T05:41:38.551Z,2.70
2019-06-27T05:44:11.277Z,2.50
2019-06-27T05:46:43.620Z,2.37
2019-06-27T05:49:16.114Z,2.60
2019-06-27T05:51:48.716Z,2.40
2019-06-27T05:54:21.226Z,2.50
2019-06-27T05:56:54.103Z,2.27
2019-06-27T05:59:26.508Z,2.67
2019-06-27T06:01:58.892Z,2.60
2019-06-27T06:04:31.578Z,2.57
2019-06-27T06:07:04.126Z,2.50
2019-06-27T06:09:36.392Z,2.67
2019-06-27T06:12:09.085Z,2.63
2019-06-27T06:14:41.435Z,2.20
2019-06-27T06:17:13.759Z,2.20
2019-06-27T06:19:46.129Z,2.40
2019-06-27T06:22:18.613Z,2.40
2019-06-27T06:24:57.931Z,2.00
2019-06-27T06:27:28.586Z,2.17
2019-06-27T06:30:01.133Z,2.30
2019-06-27T06:32:33.512Z,2.20
2019-06-27T06:35:05.887Z,2.30
2019-06-27T06:37:38.251Z,2.30
2019-06-27T06:40:10.802Z,2.60
2019-06-27T06:42:43.121Z,2.30
2019-06-27T06:45:15.411Z,2.40
2019-06-27T06:47:48.723Z,2.10
2019-06-27T06:50:23.444Z,2.67
2019-06-27T06:52:55.126Z,2.23
2019-06-27T06:55:27.605Z,2.50
2019-06-27T06:57:59.937Z,2.63
2019-06-27T07:00:32.346Z,2.57
2019-06-27T07:03:04.828Z,2.40
2019-06-27T07:05:37.373Z,2.50
2019-06-27T07:08:10.088Z,2.50
2019-06-27T07:10:42.686Z,2.47
2019-06-27T07:13:15.055Z,2.40
2019-06-27T07:15:49.442Z,2.80
2019-06-27T07:18:21.857Z,2.40
2019-06-27T07:20:54.474Z,2.20
2019-06-27T07:23:26.700Z,1.83
2019-06-27T07:26:00.137Z,2.20
2019-06-27T07:28:32.545Z,2.30
2019-06-27T07:31:17.199Z,2.53
2019-06-27T07:33:39.311Z,2.03
2019-06-27T07:36:11.756Z,2.03
2019-06-27T07:38:47.094Z,2.00
2019-06-27T07:41:18.631Z,1.80
2019-06-27T07:43:51.175Z,1.87
2019-06-27T07:46:25.498Z,1.63
2019-06-27T07:48:57.858Z,1.60
2019-06-27T07:51:30.454Z,1.63
2019-06-27T07:54:02.866Z,1.80
2019-06-27T07:56:35.175Z,1.60
2019-06-27T07:59:07.509Z,1.60
2019-06-27T08:01:39.876Z,1.70
2019-06-27T08:04:12.330Z,1.67
2019-06-27T08:06:45.967Z,1.97
2019-06-27T08:09:18.385Z,1.70
2019-06-27T08:11:50.958Z,1.60
2019-06-27T08:14:23.506Z,1.70
2019-06-27T08:16:55.836Z,2.00
2019-06-27T08:19:28.393Z,1.70
2019-06-27T08:22:01.132Z,1.80
2019-06-27T08:24:34.634Z,1.80
2019-06-27T08:27:07.921Z,2.00
2019-06-27T08:29:40.648Z,1.70
2019-06-27T08:32:13.227Z,2.33
2019-06-27T08:34:45.837Z,2.10
2019-06-27T08:37:18.207Z,1.83
2019-06-27T08:39:50.746Z,2.10
2019-06-27T08:42:23.245Z,2.50
2019-06-27T08:44:55.567Z,1.90
2019-06-27T08:47:29.665Z,2.20
2019-06-27T08:50:02.323Z,2.10
2019-06-27T08:52:34.770Z,1.87
2019-06-27T08:55:07.633Z,1.70
2019-06-27T08:57:40.829Z,1.90
2019-06-27T09:00:13.301Z,2.30
2019-06-27T09:02:46.109Z,1.80
2019-06-27T09:05:18.877Z,2.10
2019-06-27T09:07:51.114Z,2.17
2019-06-27T09:10:23.952Z,2.00
2019-06-27T09:12:56.266Z,2.10
2019-06-27T09:15:28.588Z,2.10
2019-06-27T09:18:01.167Z,1.80
2019-06-27T09:20:33.994Z,1.77
2019-06-27T09:23:06.442Z,1.90
2019-06-27T09:25:38.810Z,2.20
2019-06-27T09:28:12.301Z,1.77
2019-06-27T09:30:44.805Z,2.17
2019-06-27T09:33:17.510Z,1.93
2019-06-27T09:35:49.933Z,2.30
2019-06-27T09:38:22.755Z,1.70
2019-06-27T09:40:55.102Z,1.97
2019-06-27T09:43:27.566Z,1.87
2019-06-27T09:46:00.486Z,1.53
2019-06-27T09:48:33.070Z,1.60
2019-06-27T09:51:05.596Z,1.70
2019-06-27T09:53:37.794Z,2.10
2019-06-27T09:56:10.162Z,2.20
2019-06-27T09:58:45.851Z,1.80
2019-06-27T10:01:17.997Z,1.90
2019-06-27T10:03:50.832Z,1.60
2019-06-27T10:06:26.173Z,1.73
2019-06-27T10:08:57.670Z,1.50
2019-06-27T10:11:30.015Z,1.53
2019-06-27T10:14:02.701Z,1.60
2019-06-27T10:16:35.161Z,1.70
2019-06-27T10:19:07.448Z,1.93
2019-06-27T10:21:39.997Z,1.93
2019-06-27T10:24:12.552Z,1.80
2019-06-27T10:26:44.789Z,1.60
2019-06-27T10:29:18.159Z,1.50
2019-06-27T10:31:50.572Z,1.87
2019-06-27T10:34:23.438Z,1.90
2019-06-27T10:36:55.822Z,1.83
2019-06-27T10:39:28.103Z,1.30
2019-06-27T10:42:00.469Z,1.90
2019-06-27T10:44:39.986Z,1.80
2019-06-27T10:47:12.269Z,1.90
2019-06-27T10:49:44.771Z,1.60
2019-06-27T10:52:17.421Z,1.50
2019-06-27T10:54:50.014Z,2.73
2019-06-27T10:57:22.578Z,1.40
2019-06-27T10:59:54.852Z,1.70
2019-06-27T11:02:27.344Z,1.77
2019-06-27T11:04:59.987Z,1.43
2019-06-27T11:07:40.592Z,1.40
2019-06-27T11:10:11.200Z,1.57
2019-06-27T11:12:45.095Z,1.60
2019-06-27T11:15:18.573Z,1.47
2019-06-27T11:17:51.494Z,1.40
2019-06-27T11:20:24.075Z,1.23
2019-06-27T11:22:56.369Z,1.20
2019-06-27T11:25:28.985Z,1.10
2019-06-27T11:28:01.371Z,1.53
2019-06-27T11:30:34.795Z,1.27
2019-06-27T11:33:07.680Z,1.23
2019-06-27T11:35:40.241Z,1.20
2019-06-27T11:38:12.699Z,1.20
2019-06-27T11:40:46.154Z,1.40
2019-06-27T11:43:18.849Z,1.10
2019-06-27T11:45:52.019Z,1.27
2019-06-27T11:48:24.878Z,1.43
2019-06-27T11:50:57.425Z,1.30
2019-06-27T11:53:33.756Z,1.30
2019-06-27T11:56:06.370Z,1.37
2019-06-27T11:58:43.083Z,1.00
2019-06-27T12:01:18.641Z,1.10
2019-06-27T12:03:52.712Z,1.40
2019-06-27T12:06:26.641Z,1.20
2019-06-27T12:09:01.815Z,1.07
2019-06-27T12:11:36.243Z,1.40
2019-06-27T12:14:13.034Z,1.10
2019-06-27T12:16:47.434Z,1.10
2019-06-27T12:19:30.730Z,1.10
2019-06-27T12:22:08.107Z,0.83
2019-06-27T12:24:42.454Z,1.20
2019-06-27T12:27:18.059Z,1.50
2019-06-27T12:29:50.751Z,1.10
2019-06-27T12:32:25.083Z,1.20
2019-06-27T12:34:59.422Z,1.13
2019-06-27T12:37:33.564Z,1.30
2019-06-27T12:40:06.752Z,1.20
2019-06-27T12:42:41.329Z,1.33
2019-06-27T12:45:28.829Z,1.17
2019-06-27T12:48:07.390Z,1.00
2019-06-27T12:50:35.297Z,1.10
2019-06-27T12:53:07.761Z,1.20
2019-06-27T12:55:40.448Z,0.90
2019-06-27T12:58:13.092Z,1.20
2019-06-27T13:00:46.682Z,1.33
2019-06-27T13:03:19.395Z,1.20
2019-06-27T13:05:51.851Z,1.20
2019-06-27T13:08:24.445Z,1.37
2019-06-27T13:10:56.997Z,1.33
2019-06-27T13:13:30.592Z,1.17
2019-06-27T13:16:03.292Z,1.03
2019-06-27T13:18:35.711Z,1.20
2019-06-27T13:21:08.144Z,1.20
2019-06-27T13:23:40.779Z,1.13
2019-06-27T13:26:13.370Z,1.07
2019-06-27T13:28:46.060Z,1.00
2019-06-27T13:31:18.693Z,1.10
2019-06-27T13:33:52.429Z,0.80
2019-06-27T13:36:32.955Z,1.00
2019-06-27T13:39:06.399Z,1.20
2019-06-27T13:41:39.167Z,1.10
2019-06-27T13:44:11.951Z,0.90
2019-06-27T13:46:44.420Z,0.80
2019-06-27T13:49:18.459Z,0.70
2019-06-27T13:51:51.152Z,0.80
2019-06-27T13:54:23.622Z,0.70
2019-06-27T13:56:56.078Z,0.70
2019-06-27T13:59:28.431Z,0.60
2019-06-27T14:02:00.985Z,0.70
2019-06-27T14:04:34.570Z,0.77
2019-06-27T14:07:07.257Z,0.70
2019-06-27T14:09:51.400Z,0.70
2019-06-27T14:12:13.529Z,0.90
2019-06-27T14:14:59.211Z,0.70
2019-06-27T14:17:20.402Z,0.80
2019-06-27T14:19:52.899Z,0.80
2019-06-27T14:22:33.249Z,0.70
2019-06-27T14:24:59.647Z,0.80
2019-06-27T14:27:32.175Z,0.60
2019-06-27T14:30:04.884Z,0.70
2019-06-27T14:32:37.403Z,0.90
2019-06-27T14:35:16.122Z,1.20
2019-06-27T14:37:46.581Z,0.80
2019-06-27T14:40:20.988Z,0.87
2019-06-27T14:42:53.615Z,0.70
2019-06-27T14:45:26.382Z,0.77
2019-06-27T14:47:58.977Z,0.90
2019-06-27T14:50:31.509Z,0.97
2019-06-27T14:53:04.593Z,0.70
2019-06-27T14:55:37.698Z,0.80
2019-06-27T14:58:10.147Z,0.80
2019-06-27T15:00:42.504Z,0.70
2019-06-27T15:03:15.183Z,0.70
2019-06-27T15:05:47.388Z,0.70
2019-06-27T15:08:20.568Z,0.70
2019-06-27T15:10:53.063Z,0.90
2019-06-27T15:13:25.459Z,0.77
2019-06-27T15:16:11.334Z,0.70
2019-06-27T15:18:31.711Z,0.70
2019-06-27T15:21:03.994Z,0.80
2019-06-27T15:23:36.376Z,0.80
2019-06-27T15:26:08.794Z,0.77
2019-06-27T15:28:41.124Z,0.90
2019-06-27T15:31:13.796Z,0.87
2019-06-27T15:33:46.078Z,0.67
2019-06-27T15:36:19.541Z,0.87
2019-06-27T15:38:52.118Z,0.80
2019-06-27T15:41:24.712Z,0.60
2019-06-27T15:43:57.311Z,0.77
2019-06-27T15:46:29.952Z,0.73
2019-06-27T15:49:02.526Z,0.80
2019-06-27T15:51:34.925Z,0.80
2019-06-27T15:54:07.569Z,0.97
2019-06-27T15:56:40.153Z,0.73
2019-06-27T15:59:12.523Z,0.80
2019-06-27T16:01:46.103Z,0.70
2019-06-27T16:04:29.094Z,0.60
2019-06-27T16:06:52.655Z,0.87
2019-06-27T16:09:25.258Z,0.80
2019-06-27T16:11:57.688Z,1.00
2019-06-27T16:14:30.383Z,0.80
2019-06-27T16:17:02.726Z,3.33
2019-06-27T16:19:35.076Z,2.20
2019-06-27T16:22:07.582Z,1.30
2019-06-27T16:24:40.214Z,1.47
2019-06-27T16:27:12.594Z,1.40
2019-06-27T16:29:45.137Z,0.83
2019-06-27T16:32:17.694Z,1.10
2019-06-27T16:34:50.520Z,1.00
2019-06-27T16:37:23.127Z,0.80
2019-06-27T16:39:55.572Z,0.70
2019-06-27T16:42:27.889Z,0.73
2019-06-27T16:45:00.257Z,1.17
2019-06-27T16:47:32.661Z,0.80
2019-06-27T16:50:05.285Z,0.90
2019-06-27T16:52:37.830Z,0.90
2019-06-27T16:55:11.075Z,1.00
2019-06-27T16:57:43.599Z,0.87
2019-06-27T17:00:16.709Z,1.07
2019-06-27T17:02:49.050Z,1.20
2019-06-27T17:05:21.531Z,0.97
2019-06-27T17:07:54.146Z,0.70
2019-06-27T17:10:26.393Z,0.80
2019-06-27T17:12:58.694Z,0.80
2019-06-27T17:15:31.387Z,0.60
2019-06-27T17:18:03.985Z,0.80
2019-06-27T17:20:36.574Z,0.70
2019-06-27T17:23:08.874Z,0.90
2019-06-27T17:25:41.446Z,0.70
2019-06-27T17:28:13.881Z,1.00
2019-06-27T17:30:46.557Z,1.20
2019-06-27T17:33:20.794Z,0.90
2019-06-27T17:35:53.946Z,0.90
2019-06-27T17:38:26.721Z,0.90
2019-06-27T17:40:59.244Z,1.00
2019-06-27T17:43:34.997Z,0.90
2019-06-27T17:46:07.422Z,0.80
2019-06-27T17:48:41.470Z,0.90
2019-06-27T17:51:14.018Z,1.10
2019-06-27T17:53:46.533Z,1.10
2019-06-27T17:56:19.087Z,0.90
2019-06-27T17:58:51.704Z,1.20
2019-06-27T18:01:24.878Z,1.20
2019-06-27T18:03:57.712Z,1.17
2019-06-27T18:06:30.095Z,0.73
2019-06-27T18:09:03.808Z,1.00
2019-06-27T18:11:37.355Z,1.17
2019-06-27T18:14:09.745Z,1.00
2019-06-27T18:16:42.399Z,1.00
2019-06-27T18:19:14.780Z,1.10
2019-06-27T18:21:47.230Z,1.30
2019-06-27T18:24:19.954Z,1.00
2019-06-27T18:26:52.321Z,1.00
2019-06-27T18:29:24.856Z,0.90
2019-06-27T18:31:57.344Z,1.20
2019-06-27T18:34:30.117Z,1.10
2019-06-27T18:37:02.448Z,1.10
2019-06-27T18:39:35.002Z,1.00
2019-06-27T18:42:07.553Z,1.20
2019-06-27T18:44:40.153Z,1.00
2019-06-27T18:47:13.032Z,0.90
2019-06-27T18:49:45.534Z,1.20
2019-06-27T18:52:17.943Z,1.00
2019-06-27T18:54:50.453Z,1.03
2019-06-27T18:57:22.862Z,1.33
2019-06-27T18:59:55.245Z,1.20
2019-06-27T19:02:28.734Z,1.00
2019-06-27T19:05:01.186Z,0.97
2019-06-27T19:07:44.926Z,1.03
2019-06-27T19:10:07.837Z,1.00
2019-06-27T19:12:40.189Z,1.03
2019-06-27T19:15:12.439Z,0.97
2019-06-27T19:17:44.938Z,0.97
2019-06-27T19:20:23.793Z,1.00
2019-06-27T19:23:24.121Z,1.10
2019-06-27T19:25:59.125Z,0.90
2019-06-27T19:28:31.455Z,1.00
2019-06-27T19:31:04.027Z,1.30
2019-06-27T19:33:36.584Z,1.03
2019-06-27T19:36:09.592Z,1.10
2019-06-27T19:38:42.159Z,1.20
2019-06-27T19:41:14.789Z,1.20
2019-06-27T19:43:47.208Z,1.30
2019-06-27T19:46:19.627Z,1.30
2019-06-27T19:48:52.229Z,1.20
2019-06-27T19:51:24.860Z,1.37
2019-06-27T19:53:58.200Z,1.10
2019-06-27T19:56:31.515Z,1.40
2019-06-27T19:59:05.602Z,1.50
2019-06-27T20:01:39.481Z,1.50
2019-06-27T20:04:11.715Z,1.50
2019-06-27T20:06:44.177Z,1.50
2019-06-27T20:09:16.475Z,1.57
2019-06-27T20:11:48.681Z,1.50
2019-06-27T20:14:21.217Z,1.77
2019-06-27T20:16:53.523Z,1.50
2019-06-27T20:19:26.135Z,1.60
2019-06-27T20:21:58.672Z,1.60
2019-06-27T20:24:31.129Z,1.57
2019-06-27T20:27:03.725Z,1.70
2019-06-27T20:29:36.242Z,1.70
2019-06-27T20:32:08.766Z,1.70
2019-06-27T20:34:42.053Z,1.80
2019-06-27T20:37:14.427Z,1.80
2019-06-27T20:39:46.756Z,1.60
2019-06-27T20:42:20.086Z,1.63
2019-06-27T20:44:52.398Z,1.40
2019-06-27T20:47:25.154Z,1.70
2019-06-27T20:49:57.833Z,1.60
2019-06-27T20:52:30.593Z,1.60
2019-06-27T20:55:03.933Z,2.00
2019-06-27T20:57:36.242Z,1.77
2019-06-27T21:00:08.826Z,1.77
2019-06-27T21:02:41.335Z,2.00
2019-06-27T21:05:15.133Z,1.67
2019-06-27T21:07:47.500Z,1.90
2019-06-27T21:10:19.913Z,1.87
2019-06-27T21:12:52.289Z,1.97
2019-06-27T21:15:24.610Z,2.00
2019-06-27T21:17:56.895Z,1.80
2019-06-27T21:20:29.233Z,1.90
2019-06-27T21:23:01.479Z,1.90
2019-06-27T21:25:33.893Z,1.93
2019-06-27T21:28:06.301Z,1.90
2019-06-27T21:30:38.693Z,2.10
2019-06-27T21:33:10.804Z,1.77
2019-06-27T21:35:43.187Z,2.10
2019-06-27T21:38:16.488Z,2.33
2019-06-27T21:40:48.750Z,2.07
2019-06-27T21:43:21.861Z,2.27
2019-06-27T21:45:54.489Z,2.10
2019-06-27T21:48:26.821Z,2.07
2019-06-27T21:50:59.262Z,2.00
2019-06-27T21:53:31.912Z,2.40
2019-06-27T21:56:05.612Z,2.07
2019-06-27T21:58:38.106Z,2.10
2019-06-27T22:01:11.037Z,2.10
2019-06-27T22:03:43.544Z,2.20
2019-06-27T22:06:16.105Z,2.10
2019-06-27T22:08:48.492Z,2.30
2019-06-27T22:11:23.535Z,2.20
2019-06-27T22:13:56.580Z,2.30
2019-06-27T22:16:29.745Z,2.17
2019-06-27T22:19:04.945Z,2.20
2019-06-27T22:21:38.414Z,2.30
2019-06-27T22:24:11.023Z,2.20
2019-06-27T22:26:43.303Z,2.57
2019-06-27T22:29:15.880Z,2.57
2019-06-27T22:31:48.116Z,2.60
2019-06-27T22:34:20.592Z,2.10
2019-06-27T22:36:55.713Z,2.27
2019-06-27T22:39:46.956Z,2.63
2019-06-27T22:42:37.403Z,2.30
2019-06-27T22:45:28.404Z,2.60
2019-06-27T22:48:15.164Z,2.50
2019-06-27T22:51:10.811Z,2.77
2019-06-27T22:53:50.192Z,2.87
2019-06-27T22:56:22.795Z,2.77
2019-06-27T22:58:55.424Z,2.70
2019-06-27T23:01:27.801Z,2.53
2019-06-27T23:04:00.349Z,2.50
2019-06-27T23:06:32.844Z,3.00
2019-06-27T23:09:06.534Z,3.07
2019-06-27T23:11:38.858Z,2.90
2019-06-27T23:14:11.653Z,2.70
2019-06-27T23:16:44.930Z,2.90
2019-06-27T23:19:17.626Z,3.00
2019-06-27T23:21:50.141Z,2.73
2019-06-27T23:24:22.369Z,3.37
2019-06-27T23:26:54.908Z,3.17
2019-06-27T23:29:27.485Z,3.30
2019-06-27T23:31:59.984Z,3.90
2019-06-27T23:34:32.527Z,3.20
2019-06-27T23:37:04.989Z,3.27
2019-06-27T23:39:37.590Z,3.37
2019-06-27T23:42:10.057Z,3.37
2019-06-27T23:44:45.179Z,3.67
2019-06-27T23:47:18.550Z,3.50
2019-06-27T23:49:51.111Z,3.63
2019-06-27T23:52:24.072Z,3.37
2019-06-27T23:54:56.689Z,3.43
2019-06-27T23:57:29.008Z,3.13
